createdAt,value
2018-07-17T00:00:00.076Z,4.20
2018-07-17T00:02:28.378Z,4.07
2018-07-17T00:04:57.413Z,3.93
2018-07-17T00:07:26.140Z,3.80
2018-07-17T00:09:54.518Z,4.00
2018-07-17T00:12:22.735Z,4.07
2018-07-17T00:14:51.026Z,3.80
2018-07-17T00:17:19.434Z,4.50
2018-07-17T00:19:47.987Z,4.33
2018-07-17T00:22:17.947Z,4.43
2018-07-17T00:24:46.559Z,4.63
2018-07-17T00:27:14.926Z,4.43
2018-07-17T00:29:43.369Z,4.80
2018-07-17T00:32:11.594Z,4.50
2018-07-17T00:34:40.106Z,5.03
2018-07-17T00:37:08.570Z,5.20
2018-07-17T00:39:36.957Z,5.10
2018-07-17T00:42:05.235Z,4.87
2018-07-17T00:44:33.715Z,5.67
2018-07-17T00:47:02.358Z,5.13
2018-07-17T00:49:30.726Z,4.60
2018-07-17T00:51:58.996Z,5.00
2018-07-17T00:54:27.430Z,5.17
2018-07-17T00:56:55.809Z,5.67
2018-07-17T00:59:24.831Z,5.27
2018-07-17T01:01:58.499Z,5.00
2018-07-17T01:04:32.420Z,4.50
2018-07-17T01:07:06.118Z,4.97
2018-07-17T01:09:39.946Z,4.73
2018-07-17T01:12:13.738Z,5.33
2018-07-17T01:15:12.838Z,5.10
2018-07-17T01:17:41.333Z,5.20
2018-07-17T01:20:09.624Z,5.13
2018-07-17T01:22:37.959Z,5.23
2018-07-17T01:25:06.568Z,5.00
2018-07-17T01:27:34.960Z,4.53
2018-07-17T01:30:03.415Z,4.87
2018-07-17T01:32:32.018Z,4.97
2018-07-17T01:35:00.262Z,4.87
2018-07-17T01:37:28.654Z,5.00
2018-07-17T01:39:56.947Z,5.20
2018-07-17T01:42:25.471Z,5.33
2018-07-17T01:44:53.783Z,5.47
2018-07-17T01:47:22.169Z,4.97
2018-07-17T01:49:50.447Z,5.47
2018-07-17T01:52:18.726Z,6.07
2018-07-17T01:54:48.025Z,5.70
2018-07-17T01:57:16.306Z,5.13
2018-07-17T01:59:44.564Z,5.83
2018-07-17T02:02:12.927Z,5.53
2018-07-17T02:04:42.212Z,5.70
2018-07-17T02:07:10.533Z,5.93
2018-07-17T02:09:39.205Z,5.60
2018-07-17T02:12:07.485Z,5.53
2018-07-17T02:14:35.746Z,5.10
2018-07-17T02:17:04.363Z,5.17
2018-07-17T02:19:32.721Z,5.00
2018-07-17T02:22:01.198Z,5.43
2018-07-17T02:24:29.454Z,5.13
2018-07-17T02:26:57.733Z,5.30
2018-07-17T02:29:26.183Z,5.40
2018-07-17T02:31:54.597Z,5.63
2018-07-17T02:34:22.888Z,5.30
2018-07-17T02:36:51.142Z,5.50
2018-07-17T02:39:19.438Z,5.47
2018-07-17T02:41:47.792Z,5.67
2018-07-17T02:44:16.182Z,5.13
2018-07-17T02:46:44.408Z,5.17
2018-07-17T02:49:12.688Z,5.97
2018-07-17T02:51:41.153Z,5.27
2018-07-17T02:54:09.686Z,5.23
2018-07-17T02:56:37.964Z,5.13
2018-07-17T02:59:06.480Z,5.37
2018-07-17T03:01:34.725Z,5.60
2018-07-17T03:04:03.078Z,5.17
2018-07-17T03:06:31.782Z,5.90
2018-07-17T03:09:00.032Z,5.57
2018-07-17T03:11:28.286Z,5.90
2018-07-17T03:13:57.231Z,5.60
2018-07-17T03:16:25.700Z,5.77
2018-07-17T03:18:54.107Z,5.77
2018-07-17T03:21:22.328Z,5.47
2018-07-17T03:23:50.585Z,6.03
2018-07-17T03:26:18.998Z,5.67
2018-07-17T03:28:47.326Z,5.60
2018-07-17T03:34:08.958Z,6.33
2018-07-17T03:36:37.416Z,6.07
2018-07-17T03:39:07.071Z,6.03
2018-07-17T03:41:35.453Z,5.73
2018-07-17T03:44:04.051Z,5.37
2018-07-17T03:46:32.401Z,6.00
2018-07-17T03:49:00.784Z,6.33
2018-07-17T03:51:29.084Z,5.43
2018-07-17T03:53:57.440Z,5.87
2018-07-17T03:56:26.160Z,5.30
2018-07-17T03:58:54.968Z,6.10
2018-07-17T04:01:23.471Z,5.97
2018-07-17T04:03:51.920Z,5.83
2018-07-17T04:06:20.285Z,6.20
2018-07-17T04:08:49.578Z,5.93
2018-07-17T04:11:17.832Z,6.60
2018-07-17T04:13:46.134Z,5.90
2018-07-17T04:16:14.522Z,6.63
2018-07-17T04:18:42.802Z,5.70
2018-07-17T04:21:10.877Z,6.90
2018-07-17T04:23:39.463Z,6.00
2018-07-17T04:26:07.907Z,6.47
2018-07-17T04:28:36.559Z,6.67
2018-07-17T04:31:04.858Z,6.67
2018-07-17T04:33:33.202Z,6.27
2018-07-17T04:36:01.464Z,6.20
2018-07-17T04:38:29.901Z,6.33
2018-07-17T04:40:58.144Z,6.53
2018-07-17T04:43:27.411Z,6.23
2018-07-17T04:45:55.775Z,6.60
2018-07-17T04:48:24.715Z,6.93
2018-07-17T04:50:52.993Z,6.33
2018-07-17T04:53:21.342Z,7.13
2018-07-17T04:55:49.620Z,6.90
2018-07-17T04:58:18.150Z,6.60
2018-07-17T05:00:46.392Z,6.13
2018-07-17T05:03:14.671Z,7.23
2018-07-17T05:05:42.925Z,7.10
2018-07-17T05:08:12.351Z,7.70
2018-07-17T05:10:41.404Z,7.93
2018-07-17T05:13:09.703Z,6.30
2018-07-17T05:15:38.439Z,6.10
2018-07-17T05:18:06.935Z,7.37
2018-07-17T05:20:35.398Z,7.20
2018-07-17T05:23:05.268Z,7.50
2018-07-17T05:25:33.973Z,6.57
2018-07-17T05:28:03.331Z,7.43
2018-07-17T05:30:31.801Z,7.93
2018-07-17T05:33:00.424Z,6.60
2018-07-17T05:35:28.829Z,7.10
2018-07-17T05:37:57.518Z,7.37
2018-07-17T05:40:26.198Z,7.13
2018-07-17T05:42:55.238Z,7.17
2018-07-17T05:45:23.838Z,7.20
2018-07-17T05:47:52.646Z,6.87
2018-07-17T05:50:21.366Z,7.67
2018-07-17T05:52:50.176Z,7.43
2018-07-17T05:55:19.423Z,6.93
2018-07-17T05:57:47.906Z,7.20
2018-07-17T06:00:16.338Z,7.60
2018-07-17T06:02:44.603Z,7.27
2018-07-17T06:05:12.904Z,6.93
2018-07-17T06:07:41.378Z,7.23
2018-07-17T06:10:09.774Z,6.87
2018-07-17T06:12:38.073Z,7.40
2018-07-17T06:15:06.707Z,7.57
2018-07-17T06:17:35.027Z,6.93
2018-07-17T06:20:03.324Z,6.97
2018-07-17T06:22:32.917Z,7.60
2018-07-17T06:25:02.271Z,7.33
2018-07-17T06:27:30.475Z,7.43
2018-07-17T06:29:58.782Z,7.93
2018-07-17T06:32:27.522Z,7.13
2018-07-17T06:34:55.898Z,6.97
2018-07-17T06:37:24.895Z,8.20
2018-07-17T06:39:53.190Z,7.80
2018-07-17T06:42:21.471Z,7.63
2018-07-17T06:44:49.954Z,7.20
2018-07-17T06:47:19.444Z,6.90
2018-07-17T06:49:48.074Z,7.50
2018-07-17T06:52:16.400Z,6.83
2018-07-17T06:54:44.828Z,7.37
2018-07-17T06:57:13.224Z,7.10
2018-07-17T06:59:41.718Z,6.40
2018-07-17T07:02:10.256Z,6.80
2018-07-17T07:04:38.857Z,6.70
2018-07-17T07:07:07.280Z,6.80
2018-07-17T07:09:35.737Z,6.60
2018-07-17T07:12:04.227Z,6.27
2018-07-17T07:14:33.521Z,6.77
2018-07-17T07:17:02.767Z,6.50
2018-07-17T07:19:31.871Z,6.63
2018-07-17T07:22:00.268Z,6.33
2018-07-17T07:24:28.494Z,5.20
2018-07-17T07:26:56.819Z,5.40
2018-07-17T07:29:25.402Z,5.27
2018-07-17T07:31:53.782Z,5.60
2018-07-17T07:34:22.094Z,5.37
2018-07-17T07:36:50.321Z,4.67
2018-07-17T07:39:18.611Z,4.60
2018-07-17T07:41:47.521Z,4.93
2018-07-17T07:44:15.854Z,5.00
2018-07-17T07:46:44.152Z,4.00
2018-07-17T07:49:12.457Z,4.00
2018-07-17T07:51:41.133Z,4.10
2018-07-17T07:54:09.407Z,3.50
2018-07-17T07:56:37.364Z,3.70
2018-07-17T07:59:05.782Z,3.30
2018-07-17T08:01:34.016Z,3.53
2018-07-17T08:04:02.436Z,3.13
2018-07-17T08:06:30.656Z,2.53
2018-07-17T08:08:58.918Z,2.70
2018-07-17T08:11:27.293Z,2.90
2018-07-17T08:13:57.051Z,3.20
2018-07-17T08:16:25.483Z,2.80
2018-07-17T08:18:53.762Z,2.60
2018-07-17T08:21:21.981Z,2.90
2018-07-17T08:23:50.367Z,2.70
2018-07-17T08:26:18.776Z,2.70
2018-07-17T08:28:47.342Z,2.40
2018-07-17T08:31:15.622Z,2.23
2018-07-17T08:33:43.934Z,2.43
2018-07-17T08:36:12.157Z,2.30
2018-07-17T08:38:41.316Z,2.50
2018-07-17T08:41:10.502Z,2.57
2018-07-17T08:43:38.910Z,2.50
2018-07-17T08:46:07.226Z,2.60
2018-07-17T08:48:35.609Z,2.70
2018-07-17T08:51:03.965Z,2.67
2018-07-17T08:53:32.404Z,2.47
2018-07-17T08:56:00.693Z,2.50
2018-07-17T08:58:28.932Z,2.63
2018-07-17T09:00:57.207Z,2.60
2018-07-17T09:03:25.546Z,2.40
2018-07-17T09:05:54.069Z,2.70
2018-07-17T09:08:22.274Z,2.73
2018-07-17T09:10:50.702Z,2.93
2018-07-17T09:13:19.779Z,3.03
2018-07-17T09:15:48.091Z,2.80
2018-07-17T09:18:17.315Z,2.57
2018-07-17T09:20:45.535Z,2.60
2018-07-17T09:23:13.841Z,2.60
2018-07-17T09:25:41.996Z,2.13
2018-07-17T09:28:11.037Z,2.53
2018-07-17T09:30:44.402Z,2.50
2018-07-17T09:33:12.610Z,2.63
2018-07-17T09:35:41.551Z,2.20
2018-07-17T09:38:09.896Z,2.47
2018-07-17T09:40:38.286Z,2.80
2018-07-17T09:43:06.660Z,2.23
2018-07-17T09:45:34.890Z,2.50
2018-07-17T09:48:03.713Z,2.33
2018-07-17T09:50:31.966Z,2.50
2018-07-17T09:53:00.222Z,2.23
2018-07-17T09:55:28.459Z,1.93
2018-07-17T09:57:57.595Z,2.27
2018-07-17T10:03:16.602Z,2.20
2018-07-17T10:05:44.728Z,2.10
2018-07-17T10:08:12.942Z,2.30
2018-07-17T10:10:41.790Z,2.50
2018-07-17T10:13:10.645Z,2.30
2018-07-17T10:15:39.027Z,2.63
2018-07-17T10:18:07.226Z,2.40
2018-07-17T10:20:35.480Z,2.27
2018-07-17T10:23:04.198Z,2.67
2018-07-17T10:25:32.430Z,2.80
2018-07-17T10:28:00.752Z,2.60
2018-07-17T10:30:28.979Z,2.27
2018-07-17T10:32:57.181Z,2.70
2018-07-17T10:35:26.382Z,2.50
2018-07-17T10:37:54.742Z,2.83
2018-07-17T10:40:23.081Z,2.57
2018-07-17T10:42:51.453Z,2.77
2018-07-17T10:45:19.690Z,2.50
2018-07-17T10:47:48.881Z,2.60
2018-07-17T10:50:18.070Z,2.70
2018-07-17T10:52:46.291Z,2.43
2018-07-17T10:55:14.508Z,2.77
2018-07-17T10:57:42.737Z,2.90
2018-07-17T11:00:11.017Z,3.10
2018-07-17T11:02:39.206Z,2.60
2018-07-17T11:05:07.434Z,2.23
2018-07-17T11:07:35.748Z,2.20
2018-07-17T11:10:04.512Z,2.10
2018-07-17T11:12:32.833Z,2.10
2018-07-17T11:15:01.164Z,2.20
2018-07-17T11:17:29.366Z,2.20
2018-07-17T11:19:57.577Z,2.17
2018-07-17T11:22:26.539Z,2.37
2018-07-17T11:24:55.528Z,1.90
2018-07-17T11:27:23.769Z,2.10
2018-07-17T11:29:52.049Z,2.20
2018-07-17T11:32:20.417Z,2.20
2018-07-17T11:34:48.735Z,2.27
2018-07-17T11:37:17.606Z,2.60
2018-07-17T11:39:47.389Z,1.97
2018-07-17T11:42:15.615Z,2.20
2018-07-17T11:44:43.850Z,2.10
2018-07-17T11:47:13.574Z,2.20
2018-07-17T11:49:42.499Z,2.30
2018-07-17T11:52:11.278Z,2.20
2018-07-17T11:54:39.594Z,1.90
2018-07-17T11:57:07.870Z,2.07
2018-07-17T11:59:36.194Z,2.07
2018-07-17T12:02:05.384Z,2.70
2018-07-17T12:04:33.659Z,2.00
2018-07-17T12:07:01.945Z,2.00
2018-07-17T12:09:30.148Z,2.17
2018-07-17T12:11:58.382Z,1.93
2018-07-17T12:14:26.838Z,2.10
2018-07-17T12:16:55.137Z,2.20
2018-07-17T12:19:23.356Z,2.20
2018-07-17T12:21:51.562Z,2.00
2018-07-17T12:24:19.775Z,2.00
2018-07-17T12:26:48.253Z,1.93
2018-07-17T12:29:16.541Z,1.80
2018-07-17T12:31:44.767Z,1.90
2018-07-17T12:34:12.959Z,1.87
2018-07-17T12:36:41.270Z,1.70
2018-07-17T12:39:10.862Z,1.80
2018-07-17T12:41:39.463Z,1.80
2018-07-17T12:44:07.679Z,1.80
2018-07-17T12:46:35.985Z,1.87
2018-07-17T12:49:04.351Z,2.03
2018-07-17T12:51:33.221Z,2.20
2018-07-17T12:54:02.462Z,1.80
2018-07-17T12:56:30.658Z,1.90
2018-07-17T12:58:58.858Z,1.90
2018-07-17T13:01:27.078Z,1.97
2018-07-17T13:03:55.849Z,1.70
2018-07-17T13:06:24.320Z,1.90
2018-07-17T13:08:52.498Z,2.13
2018-07-17T13:11:20.714Z,2.07
2018-07-17T13:13:49.030Z,2.47
2018-07-17T13:16:17.439Z,2.20
2018-07-17T13:18:45.652Z,2.00
2018-07-17T13:21:13.899Z,2.40
2018-07-17T13:23:42.112Z,2.10
2018-07-17T13:26:11.022Z,1.77
2018-07-17T13:28:39.280Z,2.03
2018-07-17T13:31:07.507Z,2.10
2018-07-17T13:33:35.716Z,1.83
2018-07-17T13:36:04.118Z,2.10
2018-07-17T13:38:32.457Z,1.83
2018-07-17T13:41:00.774Z,2.00
2018-07-17T13:43:28.972Z,2.63
2018-07-17T13:45:57.842Z,1.90
2018-07-17T13:48:26.097Z,1.90
2018-07-17T13:50:54.385Z,1.83
2018-07-17T13:53:22.616Z,1.50
2018-07-17T13:55:50.829Z,3.60
2018-07-17T13:58:19.559Z,2.00
2018-07-17T14:00:47.897Z,2.60
2018-07-17T14:03:16.170Z,2.20
2018-07-17T14:05:44.425Z,2.00
2018-07-17T14:08:12.435Z,2.30
2018-07-17T14:10:41.448Z,2.10
2018-07-17T14:13:09.913Z,2.10
2018-07-17T14:15:38.102Z,2.30
2018-07-17T14:18:06.362Z,1.93
2018-07-17T14:20:34.588Z,1.93
2018-07-17T14:23:02.821Z,1.97
2018-07-17T14:25:31.032Z,2.00
2018-07-17T14:27:59.274Z,2.20
2018-07-17T14:30:27.529Z,2.07
2018-07-17T14:32:55.897Z,1.80
2018-07-17T14:35:24.856Z,2.00
2018-07-17T14:37:53.113Z,1.70
2018-07-17T14:40:23.105Z,1.73
2018-07-17T14:42:51.327Z,1.90
2018-07-17T14:45:19.540Z,1.80
2018-07-17T14:47:47.858Z,1.80
2018-07-17T14:50:16.060Z,1.70
2018-07-17T14:52:44.271Z,1.77
2018-07-17T14:55:12.858Z,1.70
2018-07-17T14:57:41.793Z,1.83
2018-07-17T15:00:10.590Z,1.80
2018-07-17T15:02:38.741Z,1.80
2018-07-17T15:05:07.595Z,1.80
2018-07-17T15:07:35.863Z,1.60
2018-07-17T15:10:04.184Z,1.83
2018-07-17T15:12:33.091Z,1.83
2018-07-17T15:15:01.302Z,2.20
2018-07-17T15:17:29.938Z,1.87
2018-07-17T15:19:58.149Z,1.73
2018-07-17T15:22:26.545Z,2.00
2018-07-17T15:24:55.170Z,2.00
2018-07-17T15:27:23.545Z,1.90
2018-07-17T15:29:51.882Z,1.77
2018-07-17T15:32:20.367Z,2.00
2018-07-17T15:34:49.408Z,2.43
2018-07-17T15:37:17.969Z,2.10
2018-07-17T15:39:46.215Z,2.40
2018-07-17T15:42:14.549Z,2.67
2018-07-17T15:44:42.777Z,2.30
2018-07-17T15:47:11.270Z,2.57
2018-07-17T15:49:39.522Z,2.30
2018-07-17T15:52:07.735Z,2.10
2018-07-17T15:54:36.043Z,2.33
2018-07-17T15:57:04.858Z,2.53
2018-07-17T15:59:33.110Z,2.07
2018-07-17T16:02:01.335Z,2.30
2018-07-17T16:04:29.629Z,2.30
2018-07-17T16:06:57.990Z,2.40
2018-07-17T16:09:26.333Z,2.70
2018-07-17T16:11:54.648Z,2.20
2018-07-17T16:14:23.234Z,2.40
2018-07-17T16:16:51.218Z,2.30
2018-07-17T16:19:19.547Z,2.17
2018-07-17T16:21:47.817Z,2.90
2018-07-17T16:24:16.048Z,2.50
2018-07-17T16:26:44.365Z,2.33
2018-07-17T16:29:12.638Z,2.27
2018-07-17T16:31:40.995Z,2.03
2018-07-17T16:34:09.297Z,2.30
2018-07-17T16:36:37.502Z,2.50
2018-07-17T16:39:06.836Z,2.40
2018-07-17T16:41:35.137Z,2.47
2018-07-17T16:44:03.521Z,2.53
2018-07-17T16:46:31.916Z,2.30
2018-07-17T16:49:00.243Z,2.10
2018-07-17T16:51:28.562Z,2.53
2018-07-17T16:53:57.959Z,2.00
2018-07-17T16:56:26.834Z,2.47
2018-07-17T16:58:55.186Z,2.23
2018-07-17T17:01:23.794Z,2.30
2018-07-17T17:03:51.970Z,2.43
2018-07-17T17:06:20.178Z,2.50
2018-07-17T17:08:49.483Z,2.40
2018-07-17T17:11:18.121Z,2.67
2018-07-17T17:13:46.715Z,2.80
2018-07-17T17:16:15.006Z,2.97
2018-07-17T17:18:43.245Z,2.40
2018-07-17T17:21:11.637Z,2.47
2018-07-17T17:23:40.230Z,2.30
2018-07-17T17:26:08.425Z,2.50
2018-07-17T17:28:36.641Z,2.67
2018-07-17T17:31:04.908Z,2.50
2018-07-17T17:33:33.277Z,2.90
2018-07-17T17:36:01.515Z,2.70
2018-07-17T17:38:29.720Z,2.80
2018-07-17T17:40:57.957Z,3.27
2018-07-17T17:43:26.310Z,2.83
2018-07-17T17:45:54.701Z,2.60
2018-07-17T17:48:22.934Z,2.50
2018-07-17T17:50:51.171Z,2.57
2018-07-17T17:53:19.385Z,2.43
2018-07-17T17:55:47.729Z,3.17
2018-07-17T17:58:15.986Z,2.60
2018-07-17T18:00:44.254Z,2.50
2018-07-17T18:03:12.571Z,2.47
2018-07-17T18:05:40.981Z,2.67
2018-07-17T18:08:09.189Z,2.83
2018-07-17T18:10:37.637Z,3.00
2018-07-17T18:13:05.920Z,3.50
2018-07-17T18:15:34.761Z,2.20
2018-07-17T18:18:04.258Z,2.33
2018-07-17T18:20:32.591Z,2.73
2018-07-17T18:23:01.045Z,2.43
2018-07-17T18:25:29.361Z,2.53
2018-07-17T18:27:57.837Z,2.70
2018-07-17T18:30:26.926Z,2.63
2018-07-17T18:32:54.960Z,2.60
2018-07-17T18:35:23.092Z,2.90
2018-07-17T18:37:51.590Z,2.90
2018-07-17T18:40:19.789Z,2.53
2018-07-17T18:42:48.042Z,2.50
2018-07-17T18:45:16.277Z,2.70
2018-07-17T18:47:44.690Z,2.90
2018-07-17T18:50:13.297Z,5.50
2018-07-17T18:52:41.287Z,4.63
2018-07-17T18:55:09.555Z,3.30
2018-07-17T18:57:37.778Z,3.60
2018-07-17T19:00:06.716Z,2.83
2018-07-17T19:02:34.958Z,2.63
2018-07-17T19:05:03.197Z,2.90
2018-07-17T19:07:31.451Z,2.73
2018-07-17T19:09:59.653Z,3.30
2018-07-17T19:12:27.963Z,2.93
2018-07-17T19:14:56.390Z,2.87
2018-07-17T19:17:24.629Z,2.70
2018-07-17T19:19:52.877Z,2.33
2018-07-17T19:22:21.098Z,2.70
2018-07-17T19:24:49.965Z,2.87
2018-07-17T19:27:18.272Z,2.93
2018-07-17T19:29:46.681Z,2.60
2018-07-17T19:32:15.749Z,2.70
2018-07-17T19:34:43.982Z,2.77
2018-07-17T19:37:12.360Z,2.67
2018-07-17T19:39:41.122Z,2.63
2018-07-17T19:42:09.500Z,2.70
2018-07-17T19:44:37.761Z,3.00
2018-07-17T19:47:06.151Z,2.50
2018-07-17T19:49:34.500Z,2.67
2018-07-17T19:52:02.917Z,2.80
2018-07-17T19:54:31.263Z,2.77
2018-07-17T19:56:59.506Z,2.63
2018-07-17T19:59:27.779Z,2.60
2018-07-17T20:01:57.046Z,2.97
2018-07-17T20:04:25.612Z,2.80
2018-07-17T20:06:53.875Z,2.93
2018-07-17T20:09:22.081Z,2.90
2018-07-17T20:11:50.476Z,3.03
2018-07-17T20:14:18.845Z,2.93
2018-07-17T20:16:47.126Z,3.47
2018-07-17T20:19:16.389Z,3.07
2018-07-17T20:21:45.629Z,2.83
2018-07-17T20:24:13.876Z,3.10
2018-07-17T20:26:42.349Z,3.10
2018-07-17T20:29:11.263Z,3.03
2018-07-17T20:31:39.572Z,3.23
2018-07-17T20:34:07.817Z,2.93
2018-07-17T20:36:36.092Z,2.80
2018-07-17T20:39:06.791Z,3.27
2018-07-17T20:41:34.995Z,3.07
2018-07-17T20:44:03.353Z,2.97
2018-07-17T20:46:31.805Z,2.90
2018-07-17T20:49:00.042Z,2.70
2018-07-17T20:51:28.338Z,2.70
2018-07-17T20:53:56.871Z,3.10
2018-07-17T20:56:26.598Z,3.20
2018-07-17T20:58:55.601Z,3.33
2018-07-17T21:01:23.821Z,3.00
2018-07-17T21:03:52.110Z,3.00
2018-07-17T21:06:20.337Z,2.83
2018-07-17T21:08:48.782Z,3.13
2018-07-17T21:11:17.216Z,3.17
2018-07-17T21:13:45.436Z,3.00
2018-07-17T21:16:13.682Z,2.87
2018-07-17T21:18:42.061Z,2.83
2018-07-17T21:21:10.352Z,3.03
2018-07-17T21:23:38.609Z,3.40
2018-07-17T21:26:06.889Z,3.30
2018-07-17T21:28:35.111Z,3.20
2018-07-17T21:31:03.537Z,3.00
2018-07-17T21:33:31.785Z,3.73
2018-07-17T21:36:00.109Z,3.37
2018-07-17T21:38:28.320Z,3.40
2018-07-17T21:40:56.381Z,3.27
2018-07-17T21:43:24.846Z,3.03
2018-07-17T21:45:53.014Z,3.30
2018-07-17T21:48:21.237Z,3.10
2018-07-17T21:50:50.435Z,3.07
2018-07-17T21:53:18.697Z,2.87
2018-07-17T21:55:46.925Z,2.90
2018-07-17T21:58:15.171Z,3.20
2018-07-17T22:00:43.369Z,3.40
2018-07-17T22:03:12.269Z,3.10
2018-07-17T22:05:40.620Z,3.13
2018-07-17T22:08:08.905Z,3.37
2018-07-17T22:10:37.206Z,3.37
2018-07-17T22:13:05.457Z,3.07
2018-07-17T22:15:34.165Z,2.97
2018-07-17T22:18:02.382Z,3.80
2018-07-17T22:20:30.589Z,3.40
2018-07-17T22:22:58.793Z,2.87
2018-07-17T22:25:27.078Z,3.20
2018-07-17T22:27:55.436Z,3.40
2018-07-17T22:30:23.672Z,3.30
2018-07-17T22:32:51.881Z,3.10
2018-07-17T22:35:20.149Z,3.63
2018-07-17T22:37:48.938Z,3.10
2018-07-17T22:40:17.205Z,3.10
2018-07-17T22:42:45.401Z,3.10
2018-07-17T22:45:13.657Z,3.67
2018-07-17T22:47:41.972Z,3.23
2018-07-17T22:50:11.152Z,3.07
2018-07-17T22:52:40.374Z,3.33
2018-07-17T22:55:08.602Z,3.27
2018-07-17T22:57:37.826Z,3.00
2018-07-17T23:00:06.938Z,3.53
2018-07-17T23:02:35.169Z,2.97
2018-07-17T23:05:03.791Z,3.17
2018-07-17T23:07:32.269Z,3.33
2018-07-17T23:10:00.547Z,3.20
2018-07-17T23:12:29.161Z,3.37
2018-07-17T23:14:57.505Z,3.20
2018-07-17T23:17:26.464Z,3.03
2018-07-17T23:19:55.388Z,3.07
2018-07-17T23:22:40.550Z,3.10
2018-07-17T23:25:08.802Z,2.90
2018-07-17T23:27:37.841Z,3.33
2018-07-17T23:30:06.138Z,3.03
2018-07-17T23:32:34.673Z,2.87
2018-07-17T23:35:03.032Z,3.07
2018-07-17T23:37:31.234Z,3.50
2018-07-17T23:39:59.673Z,3.10
2018-07-17T23:42:28.018Z,3.20
2018-07-17T23:44:56.450Z,2.93
2018-07-17T23:47:24.926Z,2.87
2018-07-17T23:49:53.146Z,3.50
2018-07-17T23:52:21.373Z,3.10
2018-07-17T23:54:50.307Z,3.00
2018-07-17T23:57:18.746Z,3.53
2018-07-17T23:59:46.966Z,3.10
